sensor_id;sensor_type;location;lat;lon;timestamp;temperature;humidity
13960;DHT22;7052;51.050;3.716;2023-04-24T00:02:27;9.90;99.90
13960;DHT22;7052;51.050;3.716;2023-04-24T00:04:54;9.80;99.90
13960;DHT22;7052;51.050;3.716;2023-04-24T00:07:22;9.80;99.90
13960;DHT22;7052;51.050;3.716;2023-04-24T00:09:49;9.80;99.90
13960;DHT22;7052;51.050;3.716;2023-04-24T00:12:16;9.80;99.90
13960;DHT22;7052;51.050;3.716;2023-04-24T00:14:43;9.80;99.90
13960;DHT22;7052;51.050;3.716;2023-04-24T00:17:10;9.80;99.90
13960;DHT22;7052;51.050;3.716;2023-04-24T00:19:39;9.70;99.90
13960;DHT22;7052;51.050;3.716;2023-04-24T00:22:06;9.70;99.90
13960;DHT22;7052;51.050;3.716;2023-04-24T00:24:36;9.70;99.90
13960;DHT22;7052;51.050;3.716;2023-04-24T00:27:03;9.70;99.90
13960;DHT22;7052;51.050;3.716;2023-04-24T00:29:33;9.70;99.90
13960;DHT22;7052;51.050;3.716;2023-04-24T00:32:00;9.70;99.90
13960;DHT22;7052;51.050;3.716;2023-04-24T00:34:28;9.70;99.90
13960;DHT22;7052;51.050;3.716;2023-04-24T00:36:59;9.70;99.90
13960;DHT22;7052;51.050;3.716;2023-04-24T00:39:27;9.60;99.90
13960;DHT22;7052;51.050;3.716;2023-04-24T00:41:54;9.70;99.90
13960;DHT22;7052;51.050;3.716;2023-04-24T00:44:24;9.60;99.90
13960;DHT22;7052;51.050;3.716;2023-04-24T00:46:53;9.60;99.90
13960;DHT22;7052;51.050;3.716;2023-04-24T00:49:21;9.60;99.90
13960;DHT22;7052;51.050;3.716;2023-04-24T00:51:49;9.60;99.90
13960;DHT22;7052;51.050;3.716;2023-04-24T00:54:18;9.50;99.90
13960;DHT22;7052;51.050;3.716;2023-04-24T00:56:45;9.60;99.90
13960;DHT22;7052;51.050;3.716;2023-04-24T00:59:16;9.60;99.90
13960;DHT22;7052;51.050;3.716;2023-04-24T01:01:44;9.60;99.90
13960;DHT22;7052;51.050;3.716;2023-04-24T01:04:12;9.60;99.90
13960;DHT22;7052;51.050;3.716;2023-04-24T01:09:31;9.60;99.90
13960;DHT22;7052;51.050;3.716;2023-04-24T01:11:59;9.60;99.90
13960;DHT22;7052;51.050;3.716;2023-04-24T01:14:27;9.60;99.90
13960;DHT22;7052;51.050;3.716;2023-04-24T01:16:54;9.60;99.90
13960;DHT22;7052;51.050;3.716;2023-04-24T01:19:23;9.60;99.90
13960;DHT22;7052;51.050;3.716;2023-04-24T01:21:51;9.60;99.90
13960;DHT22;7052;51.050;3.716;2023-04-24T01:24:22;9.60;99.90
13960;DHT22;7052;51.050;3.716;2023-04-24T01:26:50;9.60;99.90
13960;DHT22;7052;51.050;3.716;2023-04-24T01:29:18;9.50;99.90
13960;DHT22;7052;51.050;3.716;2023-04-24T01:31:46;9.40;99.90
13960;DHT22;7052;51.050;3.716;2023-04-24T01:34:13;9.40;99.90
13960;DHT22;7052;51.050;3.716;2023-04-24T01:36:42;9.40;99.90
13960;DHT22;7052;51.050;3.716;2023-04-24T01:39:09;9.40;99.90
13960;DHT22;7052;51.050;3.716;2023-04-24T01:41:55;9.40;99.90
13960;DHT22;7052;51.050;3.716;2023-04-24T01:44:23;9.40;99.90
13960;DHT22;7052;51.050;3.716;2023-04-24T01:46:51;9.40;99.90
13960;DHT22;7052;51.050;3.716;2023-04-24T01:49:19;9.30;99.90
13960;DHT22;7052;51.050;3.716;2023-04-24T01:51:46;9.40;99.90
13960;DHT22;7052;51.050;3.716;2023-04-24T01:54:14;9.30;99.90
13960;DHT22;7052;51.050;3.716;2023-04-24T01:56:42;9.30;99.90
13960;DHT22;7052;51.050;3.716;2023-04-24T01:59:16;9.30;99.90
13960;DHT22;7052;51.050;3.716;2023-04-24T02:01:44;9.30;99.90
13960;DHT22;7052;51.050;3.716;2023-04-24T02:04:11;9.20;99.90
13960;DHT22;7052;51.050;3.716;2023-04-24T02:06:39;9.20;99.90
13960;DHT22;7052;51.050;3.716;2023-04-24T02:09:07;9.30;99.90
13960;DHT22;7052;51.050;3.716;2023-04-24T02:11:43;9.30;99.90
13960;DHT22;7052;51.050;3.716;2023-04-24T02:14:11;9.30;99.90
13960;DHT22;7052;51.050;3.716;2023-04-24T02:16:39;9.20;99.90
13960;DHT22;7052;51.050;3.716;2023-04-24T02:19:09;9.20;99.90
13960;DHT22;7052;51.050;3.716;2023-04-24T02:21:36;9.20;99.90
13960;DHT22;7052;51.050;3.716;2023-04-24T02:24:03;9.20;99.90
13960;DHT22;7052;51.050;3.716;2023-04-24T02:26:32;9.20;99.90
13960;DHT22;7052;51.050;3.716;2023-04-24T02:29:00;9.20;99.90
13960;DHT22;7052;51.050;3.716;2023-04-24T02:31:29;9.20;99.90
13960;DHT22;7052;51.050;3.716;2023-04-24T02:33:56;9.10;99.90
13960;DHT22;7052;51.050;3.716;2023-04-24T02:36:23;9.10;99.90
13960;DHT22;7052;51.050;3.716;2023-04-24T02:38:50;9.10;99.90
13960;DHT22;7052;51.050;3.716;2023-04-24T02:41:17;9.10;99.90
13960;DHT22;7052;51.050;3.716;2023-04-24T02:43:46;9.10;99.90
13960;DHT22;7052;51.050;3.716;2023-04-24T02:46:13;9.10;99.90
13960;DHT22;7052;51.050;3.716;2023-04-24T02:48:41;9.10;99.90
13960;DHT22;7052;51.050;3.716;2023-04-24T02:51:08;9.20;99.90
13960;DHT22;7052;51.050;3.716;2023-04-24T02:53:36;9.20;99.90
13960;DHT22;7052;51.050;3.716;2023-04-24T02:56:03;9.20;99.90
13960;DHT22;7052;51.050;3.716;2023-04-24T02:58:32;9.20;99.90
13960;DHT22;7052;51.050;3.716;2023-04-24T03:00:59;9.20;99.90
13960;DHT22;7052;51.050;3.716;2023-04-24T03:03:26;9.20;99.90
13960;DHT22;7052;51.050;3.716;2023-04-24T03:05:55;9.30;99.90
13960;DHT22;7052;51.050;3.716;2023-04-24T03:08:22;9.30;99.90
13960;DHT22;7052;51.050;3.716;2023-04-24T03:10:50;9.20;99.90
13960;DHT22;7052;51.050;3.716;2023-04-24T03:13:19;9.20;99.90
13960;DHT22;7052;51.050;3.716;2023-04-24T03:15:45;9.30;99.90
13960;DHT22;7052;51.050;3.716;2023-04-24T03:18:12;9.40;99.90
13960;DHT22;7052;51.050;3.716;2023-04-24T03:20:39;9.30;99.90
13960;DHT22;7052;51.050;3.716;2023-04-24T03:23:10;9.30;99.90
13960;DHT22;7052;51.050;3.716;2023-04-24T03:25:38;9.30;99.90
13960;DHT22;7052;51.050;3.716;2023-04-24T03:28:06;9.30;99.90
13960;DHT22;7052;51.050;3.716;2023-04-24T03:30:33;9.30;99.90
13960;DHT22;7052;51.050;3.716;2023-04-24T03:33:00;9.30;99.90
13960;DHT22;7052;51.050;3.716;2023-04-24T03:35:27;9.30;99.90
13960;DHT22;7052;51.050;3.716;2023-04-24T03:37:55;9.30;99.90
13960;DHT22;7052;51.050;3.716;2023-04-24T03:40:23;9.30;99.90
13960;DHT22;7052;51.050;3.716;2023-04-24T03:42:51;9.30;99.90
13960;DHT22;7052;51.050;3.716;2023-04-24T03:45:18;9.30;99.90
13960;DHT22;7052;51.050;3.716;2023-04-24T03:47:46;9.30;99.90
13960;DHT22;7052;51.050;3.716;2023-04-24T03:50:14;9.30;99.90
13960;DHT22;7052;51.050;3.716;2023-04-24T03:52:42;9.20;99.90
13960;DHT22;7052;51.050;3.716;2023-04-24T03:55:10;9.30;99.90
13960;DHT22;7052;51.050;3.716;2023-04-24T03:57:40;9.30;99.90
13960;DHT22;7052;51.050;3.716;2023-04-24T04:00:08;9.20;99.90
13960;DHT22;7052;51.050;3.716;2023-04-24T04:02:35;9.20;99.90
13960;DHT22;7052;51.050;3.716;2023-04-24T04:05:03;9.20;99.90
13960;DHT22;7052;51.050;3.716;2023-04-24T04:07:33;9.10;99.90
13960;DHT22;7052;51.050;3.716;2023-04-24T04:10:01;9.20;99.90
13960;DHT22;7052;51.050;3.716;2023-04-24T04:12:28;9.10;99.90
13960;DHT22;7052;51.050;3.716;2023-04-24T04:14:57;9.10;99.90
13960;DHT22;7052;51.050;3.716;2023-04-24T04:17:24;9.10;99.90
13960;DHT22;7052;51.050;3.716;2023-04-24T04:19:51;9.10;99.90
13960;DHT22;7052;51.050;3.716;2023-04-24T04:22:18;9.10;99.90
13960;DHT22;7052;51.050;3.716;2023-04-24T04:24:45;9.10;99.90
13960;DHT22;7052;51.050;3.716;2023-04-24T04:27:16;9.00;99.90
13960;DHT22;7052;51.050;3.716;2023-04-24T04:29:44;9.10;99.90
13960;DHT22;7052;51.050;3.716;2023-04-24T04:32:12;9.10;99.90
13960;DHT22;7052;51.050;3.716;2023-04-24T04:34:40;9.10;99.90
13960;DHT22;7052;51.050;3.716;2023-04-24T04:37:08;9.10;99.90
13960;DHT22;7052;51.050;3.716;2023-04-24T04:39:38;9.10;99.90
13960;DHT22;7052;51.050;3.716;2023-04-24T04:42:05;9.00;99.90
13960;DHT22;7052;51.050;3.716;2023-04-24T04:44:32;9.00;99.90
13960;DHT22;7052;51.050;3.716;2023-04-24T04:47:02;9.00;99.90
13960;DHT22;7052;51.050;3.716;2023-04-24T04:49:36;9.00;99.90
13960;DHT22;7052;51.050;3.716;2023-04-24T04:52:06;9.00;99.90
13960;DHT22;7052;51.050;3.716;2023-04-24T04:54:36;9.00;99.90
13960;DHT22;7052;51.050;3.716;2023-04-24T04:57:03;8.90;99.90
13960;DHT22;7052;51.050;3.716;2023-04-24T04:59:30;8.90;99.90
13960;DHT22;7052;51.050;3.716;2023-04-24T05:01:57;8.90;99.90
13960;DHT22;7052;51.050;3.716;2023-04-24T05:04:25;8.90;99.90
13960;DHT22;7052;51.050;3.716;2023-04-24T05:06:55;8.90;99.90
13960;DHT22;7052;51.050;3.716;2023-04-24T05:09:23;8.90;99.90
13960;DHT22;7052;51.050;3.716;2023-04-24T05:11:53;8.90;99.90
13960;DHT22;7052;51.050;3.716;2023-04-24T05:14:21;8.90;99.90
13960;DHT22;7052;51.050;3.716;2023-04-24T05:16:48;8.90;99.90
13960;DHT22;7052;51.050;3.716;2023-04-24T05:19:15;8.90;99.90
13960;DHT22;7052;51.050;3.716;2023-04-24T05:21:43;8.90;99.90
13960;DHT22;7052;51.050;3.716;2023-04-24T05:24:13;8.90;99.90
13960;DHT22;7052;51.050;3.716;2023-04-24T05:26:40;8.90;99.90
13960;DHT22;7052;51.050;3.716;2023-04-24T05:29:08;8.90;99.90
13960;DHT22;7052;51.050;3.716;2023-04-24T05:31:35;8.90;99.90
13960;DHT22;7052;51.050;3.716;2023-04-24T05:34:02;8.80;99.90
13960;DHT22;7052;51.050;3.716;2023-04-24T05:36:31;8.80;99.90
13960;DHT22;7052;51.050;3.716;2023-04-24T05:38:59;8.90;99.90
13960;DHT22;7052;51.050;3.716;2023-04-24T05:41:29;8.90;99.90
13960;DHT22;7052;51.050;3.716;2023-04-24T05:43:57;8.90;99.90
13960;DHT22;7052;51.050;3.716;2023-04-24T05:46:24;9.00;99.90
13960;DHT22;7052;51.050;3.716;2023-04-24T05:48:59;9.00;99.90
13960;DHT22;7052;51.050;3.716;2023-04-24T05:51:27;9.00;99.90
13960;DHT22;7052;51.050;3.716;2023-04-24T05:53:54;9.00;99.90
13960;DHT22;7052;51.050;3.716;2023-04-24T05:56:24;9.00;99.90
13960;DHT22;7052;51.050;3.716;2023-04-24T05:58:53;9.00;99.90
13960;DHT22;7052;51.050;3.716;2023-04-24T06:01:21;9.00;99.90
13960;DHT22;7052;51.050;3.716;2023-04-24T06:03:51;9.00;99.90
13960;DHT22;7052;51.050;3.716;2023-04-24T06:06:26;9.10;99.90
13960;DHT22;7052;51.050;3.716;2023-04-24T06:08:55;9.10;99.90
13960;DHT22;7052;51.050;3.716;2023-04-24T06:11:23;9.10;99.90
13960;DHT22;7052;51.050;3.716;2023-04-24T06:13:58;9.20;99.90
13960;DHT22;7052;51.050;3.716;2023-04-24T06:16:41;9.20;99.90
13960;DHT22;7052;51.050;3.716;2023-04-24T06:19:08;9.20;99.90
13960;DHT22;7052;51.050;3.716;2023-04-24T06:21:38;9.20;99.90
13960;DHT22;7052;51.050;3.716;2023-04-24T06:24:05;9.30;99.90
13960;DHT22;7052;51.050;3.716;2023-04-24T06:26:33;9.30;99.90
13960;DHT22;7052;51.050;3.716;2023-04-24T06:29:05;9.40;99.90
13960;DHT22;7052;51.050;3.716;2023-04-24T06:31:33;9.40;99.90
13960;DHT22;7052;51.050;3.716;2023-04-24T06:34:03;9.50;99.90
13960;DHT22;7052;51.050;3.716;2023-04-24T06:36:31;9.60;99.90
13960;DHT22;7052;51.050;3.716;2023-04-24T06:39:02;9.70;99.90
13960;DHT22;7052;51.050;3.716;2023-04-24T06:41:29;9.80;99.90
13960;DHT22;7052;51.050;3.716;2023-04-24T06:43:58;9.80;99.90
13960;DHT22;7052;51.050;3.716;2023-04-24T06:46:27;9.80;99.90
13960;DHT22;7052;51.050;3.716;2023-04-24T06:48:54;9.80;99.90
13960;DHT22;7052;51.050;3.716;2023-04-24T06:51:23;9.80;99.90
13960;DHT22;7052;51.050;3.716;2023-04-24T06:53:51;9.90;99.90
13960;DHT22;7052;51.050;3.716;2023-04-24T06:56:19;9.90;99.90
13960;DHT22;7052;51.050;3.716;2023-04-24T06:58:47;10.00;99.90
13960;DHT22;7052;51.050;3.716;2023-04-24T07:01:21;10.00;99.90
13960;DHT22;7052;51.050;3.716;2023-04-24T07:03:52;10.20;99.90
13960;DHT22;7052;51.050;3.716;2023-04-24T07:06:20;10.20;99.90
13960;DHT22;7052;51.050;3.716;2023-04-24T07:08:48;10.40;99.90
13960;DHT22;7052;51.050;3.716;2023-04-24T07:11:16;10.40;99.90
13960;DHT22;7052;51.050;3.716;2023-04-24T07:13:43;10.30;99.90
13960;DHT22;7052;51.050;3.716;2023-04-24T07:16:11;10.30;99.90
13960;DHT22;7052;51.050;3.716;2023-04-24T07:18:40;10.20;99.90
13960;DHT22;7052;51.050;3.716;2023-04-24T07:21:09;10.20;99.90
13960;DHT22;7052;51.050;3.716;2023-04-24T07:23:36;10.20;99.90
13960;DHT22;7052;51.050;3.716;2023-04-24T07:26:04;10.20;99.90
13960;DHT22;7052;51.050;3.716;2023-04-24T07:28:31;10.20;99.90
13960;DHT22;7052;51.050;3.716;2023-04-24T07:30:58;10.20;99.90
13960;DHT22;7052;51.050;3.716;2023-04-24T07:33:25;10.20;99.90
13960;DHT22;7052;51.050;3.716;2023-04-24T07:35:53;10.20;99.90
13960;DHT22;7052;51.050;3.716;2023-04-24T07:38:23;10.20;99.90
13960;DHT22;7052;51.050;3.716;2023-04-24T07:40:51;10.10;99.90
13960;DHT22;7052;51.050;3.716;2023-04-24T07:43:22;10.10;99.90
13960;DHT22;7052;51.050;3.716;2023-04-24T07:45:50;10.10;99.90
13960;DHT22;7052;51.050;3.716;2023-04-24T07:48:18;10.00;99.90
13960;DHT22;7052;51.050;3.716;2023-04-24T07:50:48;10.00;99.90
13960;DHT22;7052;51.050;3.716;2023-04-24T07:53:15;10.10;99.90
13960;DHT22;7052;51.050;3.716;2023-04-24T07:55:44;10.10;99.90
13960;DHT22;7052;51.050;3.716;2023-04-24T07:58:11;10.10;99.90
13960;DHT22;7052;51.050;3.716;2023-04-24T08:00:43;10.20;99.90
13960;DHT22;7052;51.050;3.716;2023-04-24T08:03:10;10.20;99.90
13960;DHT22;7052;51.050;3.716;2023-04-24T08:05:39;10.40;99.90
13960;DHT22;7052;51.050;3.716;2023-04-24T08:08:10;10.50;99.90
13960;DHT22;7052;51.050;3.716;2023-04-24T08:10:44;10.60;99.90
13960;DHT22;7052;51.050;3.716;2023-04-24T08:13:12;10.70;99.90
13960;DHT22;7052;51.050;3.716;2023-04-24T08:15:39;10.90;99.90
13960;DHT22;7052;51.050;3.716;2023-04-24T08:18:07;10.90;99.90
13960;DHT22;7052;51.050;3.716;2023-04-24T08:20:34;11.00;99.90
13960;DHT22;7052;51.050;3.716;2023-04-24T08:23:02;11.00;99.90
13960;DHT22;7052;51.050;3.716;2023-04-24T08:25:30;11.10;99.90
13960;DHT22;7052;51.050;3.716;2023-04-24T08:28:02;11.10;99.90
13960;DHT22;7052;51.050;3.716;2023-04-24T08:30:31;11.20;99.90
13960;DHT22;7052;51.050;3.716;2023-04-24T08:32:59;11.40;99.90
13960;DHT22;7052;51.050;3.716;2023-04-24T08:35:26;11.40;99.90
13960;DHT22;7052;51.050;3.716;2023-04-24T08:37:53;11.50;99.90
13960;DHT22;7052;51.050;3.716;2023-04-24T08:40:26;11.70;99.90
13960;DHT22;7052;51.050;3.716;2023-04-24T08:42:55;11.90;99.90
13960;DHT22;7052;51.050;3.716;2023-04-24T08:45:24;12.00;99.90
13960;DHT22;7052;51.050;3.716;2023-04-24T08:47:54;12.10;99.90
13960;DHT22;7052;51.050;3.716;2023-04-24T08:50:21;12.10;99.90
13960;DHT22;7052;51.050;3.716;2023-04-24T08:52:50;12.00;99.90
13960;DHT22;7052;51.050;3.716;2023-04-24T08:55:19;11.90;99.90
13960;DHT22;7052;51.050;3.716;2023-04-24T08:57:51;11.70;99.90
13960;DHT22;7052;51.050;3.716;2023-04-24T09:00:21;11.60;99.90
13960;DHT22;7052;51.050;3.716;2023-04-24T09:02:50;11.50;99.90
13960;DHT22;7052;51.050;3.716;2023-04-24T09:05:21;11.50;99.90
13960;DHT22;7052;51.050;3.716;2023-04-24T09:07:52;11.60;99.90
13960;DHT22;7052;51.050;3.716;2023-04-24T09:10:21;11.70;99.90
13960;DHT22;7052;51.050;3.716;2023-04-24T09:12:50;11.70;99.90
13960;DHT22;7052;51.050;3.716;2023-04-24T09:15:20;11.70;99.90
13960;DHT22;7052;51.050;3.716;2023-04-24T09:17:48;11.70;99.90
13960;DHT22;7052;51.050;3.716;2023-04-24T09:20:17;11.70;99.90
13960;DHT22;7052;51.050;3.716;2023-04-24T09:22:45;11.70;99.90
13960;DHT22;7052;51.050;3.716;2023-04-24T09:25:12;11.70;99.90
13960;DHT22;7052;51.050;3.716;2023-04-24T09:27:43;11.70;99.90
13960;DHT22;7052;51.050;3.716;2023-04-24T09:30:11;11.60;99.90
13960;DHT22;7052;51.050;3.716;2023-04-24T09:32:40;11.60;99.90
13960;DHT22;7052;51.050;3.716;2023-04-24T09:35:10;11.70;99.90
13960;DHT22;7052;51.050;3.716;2023-04-24T09:37:42;11.80;99.90
13960;DHT22;7052;51.050;3.716;2023-04-24T09:40:14;11.80;99.90
13960;DHT22;7052;51.050;3.716;2023-04-24T09:42:45;11.80;99.90
13960;DHT22;7052;51.050;3.716;2023-04-24T09:45:13;11.90;99.90
13960;DHT22;7052;51.050;3.716;2023-04-24T09:47:42;12.00;99.90
13960;DHT22;7052;51.050;3.716;2023-04-24T09:50:23;12.10;99.00
13960;DHT22;7052;51.050;3.716;2023-04-24T09:53:06;12.00;99.40
13960;DHT22;7052;51.050;3.716;2023-04-24T09:55:39;12.10;98.70
13960;DHT22;7052;51.050;3.716;2023-04-24T09:58:16;12.20;98.60
13960;DHT22;7052;51.050;3.716;2023-04-24T10:00:46;12.30;97.30
13960;DHT22;7052;51.050;3.716;2023-04-24T10:03:20;12.30;97.70
13960;DHT22;7052;51.050;3.716;2023-04-24T10:05:48;12.30;97.00
13960;DHT22;7052;51.050;3.716;2023-04-24T10:08:17;12.20;96.50
13960;DHT22;7052;51.050;3.716;2023-04-24T10:10:45;12.30;97.50
13960;DHT22;7052;51.050;3.716;2023-04-24T10:13:14;12.40;97.70
13960;DHT22;7052;51.050;3.716;2023-04-24T10:15:42;12.50;96.10
13960;DHT22;7052;51.050;3.716;2023-04-24T10:18:10;12.50;96.00
13960;DHT22;7052;51.050;3.716;2023-04-24T10:20:45;12.60;95.30
13960;DHT22;7052;51.050;3.716;2023-04-24T10:23:12;12.60;95.10
13960;DHT22;7052;51.050;3.716;2023-04-24T10:25:43;12.50;93.70
13960;DHT22;7052;51.050;3.716;2023-04-24T10:28:10;12.40;94.20
13960;DHT22;7052;51.050;3.716;2023-04-24T10:30:39;12.40;93.50
13960;DHT22;7052;51.050;3.716;2023-04-24T10:33:09;12.40;94.20
13960;DHT22;7052;51.050;3.716;2023-04-24T10:35:41;12.50;93.90
13960;DHT22;7052;51.050;3.716;2023-04-24T10:38:12;12.50;93.30
13960;DHT22;7052;51.050;3.716;2023-04-24T10:40:45;12.50;93.20
13960;DHT22;7052;51.050;3.716;2023-04-24T10:43:16;12.50;93.20
13960;DHT22;7052;51.050;3.716;2023-04-24T10:46:01;12.60;92.80
13960;DHT22;7052;51.050;3.716;2023-04-24T10:48:33;12.60;92.60
13960;DHT22;7052;51.050;3.716;2023-04-24T10:51:03;12.60;92.90
13960;DHT22;7052;51.050;3.716;2023-04-24T10:53:35;12.50;92.90
13960;DHT22;7052;51.050;3.716;2023-04-24T10:56:05;12.40;93.10
13960;DHT22;7052;51.050;3.716;2023-04-24T10:58:39;12.30;93.20
13960;DHT22;7052;51.050;3.716;2023-04-24T11:01:08;12.40;93.60
13960;DHT22;7052;51.050;3.716;2023-04-24T11:03:36;12.60;91.50
13960;DHT22;7052;51.050;3.716;2023-04-24T11:06:08;12.60;91.80
13960;DHT22;7052;51.050;3.716;2023-04-24T11:08:43;12.50;92.60
13960;DHT22;7052;51.050;3.716;2023-04-24T11:12:02;12.60;93.50
13960;DHT22;7052;51.050;3.716;2023-04-24T11:15:00;13.00;91.90
13960;DHT22;7052;51.050;3.716;2023-04-24T11:17:30;13.40;88.40
13960;DHT22;7052;51.050;3.716;2023-04-24T11:20:03;13.60;85.60
13960;DHT22;7052;51.050;3.716;2023-04-24T11:22:34;13.80;85.80
13960;DHT22;7052;51.050;3.716;2023-04-24T11:25:12;13.80;83.90
13960;DHT22;7052;51.050;3.716;2023-04-24T11:27:48;13.90;79.40
13960;DHT22;7052;51.050;3.716;2023-04-24T11:30:19;13.90;80.70
13960;DHT22;7052;51.050;3.716;2023-04-24T11:32:49;13.90;78.80
13960;DHT22;7052;51.050;3.716;2023-04-24T11:35:18;13.80;82.80
13960;DHT22;7052;51.050;3.716;2023-04-24T11:37:50;13.70;82.20
13960;DHT22;7052;51.050;3.716;2023-04-24T11:40:19;13.70;82.00
13960;DHT22;7052;51.050;3.716;2023-04-24T11:42:54;13.70;85.00
13960;DHT22;7052;51.050;3.716;2023-04-24T11:45:22;13.90;83.20
13960;DHT22;7052;51.050;3.716;2023-04-24T11:47:52;13.90;79.50
13960;DHT22;7052;51.050;3.716;2023-04-24T11:50:22;13.90;80.90
13960;DHT22;7052;51.050;3.716;2023-04-24T11:52:52;13.70;77.30
13960;DHT22;7052;51.050;3.716;2023-04-24T11:55:26;13.50;78.70
13960;DHT22;7052;51.050;3.716;2023-04-24T11:57:57;13.40;79.10
13960;DHT22;7052;51.050;3.716;2023-04-24T12:00:29;13.50;76.70
13960;DHT22;7052;51.050;3.716;2023-04-24T12:03:04;13.50;78.60
13960;DHT22;7052;51.050;3.716;2023-04-24T12:05:32;13.60;78.40
13960;DHT22;7052;51.050;3.716;2023-04-24T12:08:01;13.70;79.00
13960;DHT22;7052;51.050;3.716;2023-04-24T12:10:29;13.70;78.50
13960;DHT22;7052;51.050;3.716;2023-04-24T12:12:59;13.70;76.60
13960;DHT22;7052;51.050;3.716;2023-04-24T12:15:27;13.60;76.60
13960;DHT22;7052;51.050;3.716;2023-04-24T12:17:55;13.50;78.10
13960;DHT22;7052;51.050;3.716;2023-04-24T12:20:26;13.50;76.10
13960;DHT22;7052;51.050;3.716;2023-04-24T12:22:55;13.50;79.20
13960;DHT22;7052;51.050;3.716;2023-04-24T12:25:26;13.50;75.50
13960;DHT22;7052;51.050;3.716;2023-04-24T12:28:12;13.40;79.30
13960;DHT22;7052;51.050;3.716;2023-04-24T12:30:43;13.40;78.70
13960;DHT22;7052;51.050;3.716;2023-04-24T12:33:12;13.40;76.50
13960;DHT22;7052;51.050;3.716;2023-04-24T12:35:40;13.50;73.80
13960;DHT22;7052;51.050;3.716;2023-04-24T12:38:10;13.40;73.30
13960;DHT22;7052;51.050;3.716;2023-04-24T12:40:39;13.40;72.80
13960;DHT22;7052;51.050;3.716;2023-04-24T12:43:15;13.30;73.00
13960;DHT22;7052;51.050;3.716;2023-04-24T12:45:43;13.30;71.30
13960;DHT22;7052;51.050;3.716;2023-04-24T12:48:11;13.10;75.60
13960;DHT22;7052;51.050;3.716;2023-04-24T12:50:39;13.20;76.20
13960;DHT22;7052;51.050;3.716;2023-04-24T12:53:08;13.30;74.60
13960;DHT22;7052;51.050;3.716;2023-04-24T12:55:38;13.30;73.70
13960;DHT22;7052;51.050;3.716;2023-04-24T12:58:06;13.30;70.50
13960;DHT22;7052;51.050;3.716;2023-04-24T13:00:36;13.10;69.90
13960;DHT22;7052;51.050;3.716;2023-04-24T13:03:08;13.10;70.90
13960;DHT22;7052;51.050;3.716;2023-04-24T13:05:35;13.20;69.40
13960;DHT22;7052;51.050;3.716;2023-04-24T13:08:03;13.20;70.30
13960;DHT22;7052;51.050;3.716;2023-04-24T13:10:30;13.30;71.10
13960;DHT22;7052;51.050;3.716;2023-04-24T13:12:57;13.50;70.70
13960;DHT22;7052;51.050;3.716;2023-04-24T13:15:25;13.70;69.50
13960;DHT22;7052;51.050;3.716;2023-04-24T13:17:55;13.90;66.30
13960;DHT22;7052;51.050;3.716;2023-04-24T13:20:22;14.00;66.00
13960;DHT22;7052;51.050;3.716;2023-04-24T13:22:51;14.00;64.20
13960;DHT22;7052;51.050;3.716;2023-04-24T13:25:19;13.90;62.80
13960;DHT22;7052;51.050;3.716;2023-04-24T13:27:48;13.80;63.30
13960;DHT22;7052;51.050;3.716;2023-04-24T13:30:20;13.90;64.10
13960;DHT22;7052;51.050;3.716;2023-04-24T13:32:48;14.00;59.30
13960;DHT22;7052;51.050;3.716;2023-04-24T13:35:16;14.00;59.20
13960;DHT22;7052;51.050;3.716;2023-04-24T13:37:43;14.20;60.00
13960;DHT22;7052;51.050;3.716;2023-04-24T13:40:12;14.30;59.90
13960;DHT22;7052;51.050;3.716;2023-04-24T13:42:43;14.40;59.40
13960;DHT22;7052;51.050;3.716;2023-04-24T13:45:10;14.60;59.00
13960;DHT22;7052;51.050;3.716;2023-04-24T13:47:38;14.60;59.40
13960;DHT22;7052;51.050;3.716;2023-04-24T13:50:07;14.50;60.50
13960;DHT22;7052;51.050;3.716;2023-04-24T13:52:39;14.50;60.70
13960;DHT22;7052;51.050;3.716;2023-04-24T13:55:10;14.60;58.50
13960;DHT22;7052;51.050;3.716;2023-04-24T13:57:40;14.60;58.60
13960;DHT22;7052;51.050;3.716;2023-04-24T14:00:09;14.70;59.50
13960;DHT22;7052;51.050;3.716;2023-04-24T14:02:37;14.90;58.40
13960;DHT22;7052;51.050;3.716;2023-04-24T14:05:05;15.00;56.70
13960;DHT22;7052;51.050;3.716;2023-04-24T14:07:33;14.90;55.80
13960;DHT22;7052;51.050;3.716;2023-04-24T14:10:01;14.90;55.20
13960;DHT22;7052;51.050;3.716;2023-04-24T14:12:29;14.70;55.70
13960;DHT22;7052;51.050;3.716;2023-04-24T14:14:57;14.60;55.50
13960;DHT22;7052;51.050;3.716;2023-04-24T14:17:24;14.60;55.30
13960;DHT22;7052;51.050;3.716;2023-04-24T14:19:51;14.60;55.90
13960;DHT22;7052;51.050;3.716;2023-04-24T14:22:21;14.60;56.60
13960;DHT22;7052;51.050;3.716;2023-04-24T14:24:50;14.50;56.70
13960;DHT22;7052;51.050;3.716;2023-04-24T14:27:19;14.30;57.80
13960;DHT22;7052;51.050;3.716;2023-04-24T14:29:48;14.00;59.50
13960;DHT22;7052;51.050;3.716;2023-04-24T14:32:15;13.90;60.00
13960;DHT22;7052;51.050;3.716;2023-04-24T14:34:44;13.80;61.20
13960;DHT22;7052;51.050;3.716;2023-04-24T14:37:11;13.90;59.40
13960;DHT22;7052;51.050;3.716;2023-04-24T14:39:38;14.00;59.80
13960;DHT22;7052;51.050;3.716;2023-04-24T14:42:06;14.20;57.30
13960;DHT22;7052;51.050;3.716;2023-04-24T14:44:49;14.30;56.40
13960;DHT22;7052;51.050;3.716;2023-04-24T14:47:16;14.30;56.10
13960;DHT22;7052;51.050;3.716;2023-04-24T14:49:48;14.10;57.30
13960;DHT22;7052;51.050;3.716;2023-04-24T14:52:18;14.10;58.70
13960;DHT22;7052;51.050;3.716;2023-04-24T14:54:45;14.10;59.50
13960;DHT22;7052;51.050;3.716;2023-04-24T14:57:13;14.00;58.10
13960;DHT22;7052;51.050;3.716;2023-04-24T14:59:45;13.90;59.40
13960;DHT22;7052;51.050;3.716;2023-04-24T15:02:14;13.90;60.90
13960;DHT22;7052;51.050;3.716;2023-04-24T15:04:42;13.90;61.50
13960;DHT22;7052;51.050;3.716;2023-04-24T15:07:14;13.90;58.60
13960;DHT22;7052;51.050;3.716;2023-04-24T15:09:41;13.90;59.40
13960;DHT22;7052;51.050;3.716;2023-04-24T15:12:08;13.90;59.50
13960;DHT22;7052;51.050;3.716;2023-04-24T15:14:38;13.80;60.40
13960;DHT22;7052;51.050;3.716;2023-04-24T15:17:06;13.80;61.40
13960;DHT22;7052;51.050;3.716;2023-04-24T15:19:34;13.70;60.50
13960;DHT22;7052;51.050;3.716;2023-04-24T15:22:02;13.70;60.80
13960;DHT22;7052;51.050;3.716;2023-04-24T15:24:29;13.70;61.80
13960;DHT22;7052;51.050;3.716;2023-04-24T15:26:58;13.70;61.40
13960;DHT22;7052;51.050;3.716;2023-04-24T15:29:28;13.60;61.30
13960;DHT22;7052;51.050;3.716;2023-04-24T15:32:04;13.60;60.90
13960;DHT22;7052;51.050;3.716;2023-04-24T15:35:06;13.60;60.60
13960;DHT22;7052;51.050;3.716;2023-04-24T15:37:33;13.70;56.30
13960;DHT22;7052;51.050;3.716;2023-04-24T15:40:01;13.70;55.90
13960;DHT22;7052;51.050;3.716;2023-04-24T15:42:30;13.70;56.70
13960;DHT22;7052;51.050;3.716;2023-04-24T15:45:00;13.60;56.30
13960;DHT22;7052;51.050;3.716;2023-04-24T15:47:31;13.50;57.50
13960;DHT22;7052;51.050;3.716;2023-04-24T15:50:05;13.60;58.20
13960;DHT22;7052;51.050;3.716;2023-04-24T15:52:35;13.60;58.50
13960;DHT22;7052;51.050;3.716;2023-04-24T15:55:03;13.80;59.20
13960;DHT22;7052;51.050;3.716;2023-04-24T15:57:31;13.90;58.20
13960;DHT22;7052;51.050;3.716;2023-04-24T15:59:59;14.00;57.30
13960;DHT22;7052;51.050;3.716;2023-04-24T16:02:26;14.10;57.60
13960;DHT22;7052;51.050;3.716;2023-04-24T16:04:55;14.00;56.70
13960;DHT22;7052;51.050;3.716;2023-04-24T16:07:26;14.00;57.20
13960;DHT22;7052;51.050;3.716;2023-04-24T16:09:53;13.80;58.30